createdAt,value
2023-05-19T00:07:32.711Z,74.2608
2023-05-19T00:09:33.672Z,75.1424
2023-05-19T00:10:34.787Z,75.5185
2023-05-19T00:13:37.322Z,75.0542
2023-05-19T00:20:40.060Z,75.2423
2023-05-19T00:21:41.099Z,75.4694
2023-05-19T00:23:42.369Z,74.0738
2023-05-19T00:24:42.912Z,74.7587
2023-05-19T00:25:43.599Z,74.8880
2023-05-19T00:26:44.749Z,74.2102
2023-05-19T00:28:45.662Z,76.8786
2023-05-19T00:29:46.719Z,76.8571
2023-05-19T00:34:49.368Z,75.5056
2023-05-19T00:36:50.043Z,75.7193
2023-05-19T00:37:50.088Z,76.5588
2023-05-19T00:38:50.956Z,75.7410
2023-05-19T00:39:51.941Z,78.1452
2023-05-19T00:40:52.523Z,78.0526
2023-05-19T00:41:52.840Z,76.9651
2023-05-19T00:42:53.300Z,76.7167
2023-05-19T00:43:54.149Z,76.7956
2023-05-19T00:45:54.522Z,76.9742
2023-05-19T00:46:54.772Z,77.6401
2023-05-19T00:48:53.054Z,76.4628
2023-05-19T00:49:53.390Z,77.1994
2023-05-19T00:50:54.376Z,78.1631
2023-05-19T00:51:55.089Z,77.9053
2023-05-19T00:52:57.026Z,78.7809
2023-05-19T01:00:00.524Z,75.3641
2023-05-19T01:05:04.142Z,76.3605
2023-05-19T01:06:04.704Z,76.9753
2023-05-19T01:08:04.549Z,78.2556
2023-05-19T01:10:05.566Z,77.4623
2023-05-19T01:11:06.125Z,76.5060
2023-05-19T01:18:09.122Z,79.6144
2023-05-19T01:25:14.664Z,80.2043
2023-05-19T01:27:15.383Z,80.7478
2023-05-19T01:29:16.427Z,81.8894
2023-05-19T01:37:21.055Z,80.3789
2023-05-19T01:40:21.560Z,79.2428
2023-05-19T01:41:22.479Z,79.8945
2023-05-19T01:42:23.270Z,78.9949
2023-05-19T01:43:23.661Z,79.2326
2023-05-19T01:45:26.309Z,79.0957
2023-05-19T01:47:27.944Z,79.6737
2023-05-19T01:58:35.410Z,78.8264
2023-05-19T01:59:36.504Z,78.5136
2023-05-19T02:00:37.569Z,80.1186
2023-05-19T02:01:38.409Z,79.7758
2023-05-19T02:08:42.002Z,79.3385
2023-05-19T02:10:43.378Z,78.5257
2023-05-19T02:11:44.520Z,79.5537
2023-05-19T02:12:44.664Z,80.3256
2023-05-19T02:13:45.684Z,79.7956
2023-05-19T02:14:46.036Z,81.3132
2023-05-19T02:15:49.077Z,80.7955
2023-05-19T02:16:50.410Z,80.4608
2023-05-19T02:17:51.115Z,79.4797
2023-05-19T02:18:51.537Z,80.0299
2023-05-19T02:19:51.531Z,81.1530
2023-05-19T02:20:52.442Z,79.7577
2023-05-19T02:21:52.988Z,79.0853
2023-05-19T02:22:53.936Z,78.8107
2023-05-19T02:23:54.592Z,79.3111
2023-05-19T02:24:54.639Z,80.5473
2023-05-19T02:25:55.484Z,79.6548
2023-05-19T02:26:55.978Z,80.0412
2023-05-19T02:27:57.350Z,79.0639
2023-05-19T02:28:58.107Z,80.1370
2023-05-19T02:29:58.102Z,81.4969
2023-05-19T02:31:00.069Z,80.6474
2023-05-19T02:32:00.906Z,79.2156
2023-05-19T02:39:03.809Z,78.7916
2023-05-19T02:42:06.234Z,78.5502
2023-05-19T02:44:07.122Z,78.6461
2023-05-19T02:53:19.514Z,79.6688
2023-05-19T02:54:19.723Z,79.8648
2023-05-19T02:55:21.066Z,79.2060
2023-05-19T02:56:22.181Z,78.2249
2023-05-19T02:57:24.166Z,79.4587
2023-05-19T02:58:24.300Z,79.4760
2023-05-19T02:59:25.708Z,79.4191
2023-05-19T03:00:24.937Z,79.9168
2023-05-19T03:01:25.667Z,80.1548
2023-05-19T03:02:26.006Z,79.6557
2023-05-19T03:03:26.651Z,80.3707
2023-05-19T03:04:26.682Z,79.3417
2023-05-19T03:05:28.070Z,79.2267
2023-05-19T03:06:29.066Z,79.0033
2023-05-19T03:11:32.120Z,80.5340
2023-05-19T03:12:32.565Z,80.2434
2023-05-19T03:13:33.489Z,79.5096
2023-05-19T03:15:34.080Z,79.7189
2023-05-19T03:16:35.248Z,79.0531
2023-05-19T03:17:35.593Z,80.4013
2023-05-19T03:18:35.699Z,81.0644
2023-05-19T03:19:37.109Z,79.9204
2023-05-19T03:20:40.922Z,80.4068
2023-05-19T03:21:39.976Z,80.8833
2023-05-19T03:25:42.301Z,79.6102
2023-05-19T03:27:43.017Z,80.1702
2023-05-19T03:28:43.569Z,80.6187
2023-05-19T03:30:43.371Z,80.1120
2023-05-19T03:31:43.492Z,79.9142
2023-05-19T03:32:43.768Z,80.4036
2023-05-19T03:33:44.557Z,80.7433
2023-05-19T03:35:45.741Z,81.5053
2023-05-19T03:36:46.068Z,81.2194
2023-05-19T03:37:46.692Z,80.2352
2023-05-19T03:38:47.801Z,81.1558
2023-05-19T03:44:50.264Z,79.6518
2023-05-19T03:45:50.926Z,79.5796
2023-05-19T03:46:52.717Z,80.3239
2023-05-19T03:47:53.412Z,79.7223
2023-05-19T03:48:54.979Z,80.0311
2023-05-19T03:53:55.600Z,82.5891
2023-05-19T03:54:57.020Z,83.0200
2023-05-19T04:04:01.936Z,81.1583
2023-05-19T04:09:04.212Z,81.5952
2023-05-19T04:10:04.570Z,81.3455
2023-05-19T04:12:07.721Z,81.6483
2023-05-19T04:14:09.666Z,82.9803
2023-05-19T04:15:09.802Z,83.9120
2023-05-19T04:16:11.425Z,84.0901
2023-05-19T04:18:11.872Z,83.8548
2023-05-19T04:20:13.182Z,83.0147
2023-05-19T04:21:13.864Z,81.8550
2023-05-19T04:22:15.057Z,81.7563
2023-05-19T04:23:15.814Z,82.4109
2023-05-19T04:24:17.327Z,82.4095
2023-05-19T04:25:17.490Z,82.6468
2023-05-19T04:26:17.964Z,82.8821
2023-05-19T04:27:19.163Z,82.2179
2023-05-19T04:30:21.929Z,83.1701
2023-05-19T04:31:22.051Z,82.4939
2023-05-19T04:32:22.851Z,82.5937
2023-05-19T04:33:24.270Z,82.8583
2023-05-19T04:34:25.318Z,82.3500
2023-05-19T04:38:26.847Z,81.6212
2023-05-19T04:39:27.489Z,80.8927
2023-05-19T04:40:27.806Z,81.4965
2023-05-19T04:41:28.759Z,80.8991
2023-05-19T04:42:29.883Z,80.8767
2023-05-19T04:43:30.160Z,80.7002
2023-05-19T04:44:31.559Z,80.3846
2023-05-19T04:45:31.738Z,80.8873
2023-05-19T04:47:34.627Z,80.3176
2023-05-19T04:53:39.282Z,79.7602
2023-05-19T04:54:39.511Z,80.1132
2023-05-19T04:55:39.873Z,80.2959
2023-05-19T04:56:40.443Z,78.8687
2023-05-19T05:04:43.595Z,78.6165
2023-05-19T05:05:45.365Z,78.5466
2023-05-19T05:07:45.593Z,78.4935
2023-05-19T05:08:46.688Z,77.6088
2023-05-19T05:09:47.093Z,77.7335
2023-05-19T05:10:47.706Z,77.6211
2023-05-19T05:22:54.908Z,76.1623
2023-05-19T05:23:56.150Z,76.4984
2023-05-19T05:24:56.251Z,75.9616
2023-05-19T05:25:56.650Z,76.5657
2023-05-19T05:28:59.807Z,76.6286
2023-05-19T05:30:00.298Z,77.1141
2023-05-19T05:31:00.518Z,77.0463
2023-05-19T05:32:00.927Z,77.1378
2023-05-19T05:33:01.270Z,77.6419
2023-05-19T05:34:02.333Z,77.9521
2023-05-19T05:35:03.404Z,77.9193
2023-05-19T05:36:04.882Z,77.2983
2023-05-19T05:37:06.278Z,77.7694
2023-05-19T05:38:07.047Z,77.7522
2023-05-19T05:39:08.397Z,78.3236
2023-05-19T05:40:08.807Z,77.9779
2023-05-19T05:41:09.856Z,77.9483
2023-05-19T05:42:11.063Z,78.2304
2023-05-19T05:43:12.534Z,78.2102
2023-05-19T05:44:12.767Z,78.5527
2023-05-19T05:45:13.212Z,78.7169
2023-05-19T05:56:20.348Z,78.0492
2023-05-19T05:57:20.813Z,78.6087
2023-05-19T05:58:21.726Z,78.2543
2023-05-19T05:59:22.713Z,78.3340
2023-05-19T06:01:22.168Z,78.3506
2023-05-19T06:02:23.786Z,78.2258
2023-05-19T06:03:24.719Z,78.4843
2023-05-19T06:04:26.005Z,78.8388
2023-05-19T06:05:26.446Z,78.2001
2023-05-19T06:06:27.486Z,78.6569
2023-05-19T06:07:28.007Z,78.2199
2023-05-19T06:11:07.230Z,77.5600
2023-05-19T06:12:08.276Z,78.1592
2023-05-19T06:13:08.890Z,78.2187
2023-05-19T06:14:09.516Z,78.2501
2023-05-19T06:15:09.782Z,78.4114
2023-05-19T06:17:12.830Z,78.2299
2023-05-19T06:18:13.850Z,78.4683
2023-05-19T06:23:18.183Z,78.4042
2023-05-19T06:24:18.853Z,78.2756
2023-05-19T06:25:18.878Z,78.2513
2023-05-19T06:29:21.377Z,78.4012
2023-05-19T06:30:21.836Z,79.1715
2023-05-19T06:31:22.930Z,78.6277
2023-05-19T06:32:22.919Z,78.9109
2023-05-19T06:33:25.556Z,78.0521
2023-05-19T06:34:25.681Z,78.7779
2023-05-19T06:39:30.351Z,78.3083
2023-05-19T06:40:31.498Z,78.6789
2023-05-19T06:42:32.022Z,78.4191
2023-05-19T06:43:32.396Z,78.7424
2023-05-19T06:44:33.477Z,78.8406
2023-05-19T06:45:34.216Z,78.8622
2023-05-19T06:46:34.346Z,78.5599
2023-05-19T06:47:35.498Z,78.8456
2023-05-19T06:48:35.784Z,78.4050
2023-05-19T06:49:37.761Z,78.5525
2023-05-19T06:54:39.136Z,78.8447
2023-05-19T06:55:54.356Z,78.7853
2023-05-19T06:56:40.725Z,79.0763
2023-05-19T06:58:43.640Z,78.3692
2023-05-19T06:59:43.934Z,78.3466
2023-05-19T07:00:44.883Z,78.5348
2023-05-19T07:09:47.200Z,77.5666
2023-05-19T07:12:48.598Z,76.6034
2023-05-19T07:15:49.701Z,77.3768
2023-05-19T07:16:50.253Z,76.7912
2023-05-19T07:17:52.120Z,76.5638
2023-05-19T07:18:52.507Z,76.2592
2023-05-19T07:19:53.810Z,77.0096
2023-05-19T07:20:54.102Z,76.6907
2023-05-19T07:21:55.620Z,76.7381
2023-05-19T07:22:55.903Z,76.7279
2023-05-19T07:23:57.113Z,75.9991
2023-05-19T07:26:58.849Z,76.6415
2023-05-19T07:27:59.266Z,75.7177
2023-05-19T07:29:12.203Z,75.4289
2023-05-19T07:30:02.156Z,74.9340
2023-05-19T07:31:03.278Z,74.5021
2023-05-19T07:32:04.074Z,75.7019
2023-05-19T07:33:05.340Z,75.0342
2023-05-19T07:34:06.244Z,75.0250
2023-05-19T07:35:06.575Z,75.5265
2023-05-19T07:36:07.984Z,75.7015
2023-05-19T07:39:11.295Z,76.0162
2023-05-19T07:40:12.006Z,76.1170
2023-05-19T07:41:13.022Z,75.3691
2023-05-19T07:42:13.514Z,74.9067
2023-05-19T07:43:14.702Z,74.5286
2023-05-19T07:44:15.581Z,74.5223
2023-05-19T07:45:16.710Z,74.4580
2023-05-19T07:49:18.357Z,73.0588
2023-05-19T07:50:19.310Z,73.0954
2023-05-19T07:51:19.558Z,72.0771
2023-05-19T07:54:21.657Z,72.3803
2023-05-19T07:55:22.106Z,71.7938
2023-05-19T07:56:22.823Z,72.1349
2023-05-19T07:57:23.207Z,72.6677
2023-05-19T07:58:24.073Z,71.8470
2023-05-19T07:59:25.427Z,72.6428
2023-05-19T08:00:26.070Z,72.0962
2023-05-19T08:01:27.134Z,72.8711
2023-05-19T08:02:27.670Z,72.1598
2023-05-19T08:04:29.651Z,72.1267
2023-05-19T08:05:30.303Z,71.8328
2023-05-19T08:06:30.867Z,73.5787
2023-05-19T08:07:31.354Z,73.6087
2023-05-19T08:12:33.891Z,75.0363
2023-05-19T08:13:34.669Z,75.0641
2023-05-19T08:14:34.962Z,74.5921
2023-05-19T08:15:35.478Z,75.1411
2023-05-19T08:16:36.021Z,74.2472
2023-05-19T08:17:36.928Z,73.4059
2023-05-19T08:18:37.766Z,73.8612
2023-05-19T08:21:38.737Z,73.4858
2023-05-19T08:22:38.971Z,73.6220
2023-05-19T08:23:39.902Z,73.5732
2023-05-19T08:24:40.705Z,73.4624
2023-05-19T08:25:42.358Z,73.2998
2023-05-19T08:26:43.232Z,74.4419
2023-05-19T08:27:44.022Z,73.7497
2023-05-19T08:28:44.969Z,73.8361
2023-05-19T08:29:45.977Z,73.8305
2023-05-19T08:33:47.502Z,74.3402
2023-05-19T08:34:47.883Z,73.7135
2023-05-19T08:35:47.922Z,73.5123
2023-05-19T08:36:49.060Z,73.8961
2023-05-19T08:37:49.155Z,73.9984
2023-05-19T08:38:50.117Z,74.2371
2023-05-19T08:39:51.327Z,74.6683
2023-05-19T08:40:51.735Z,74.0823
2023-05-19T08:52:19.439Z,71.4592
2023-05-19T08:54:19.789Z,70.7641
2023-05-19T08:55:20.777Z,70.5062
2023-05-19T08:56:21.872Z,70.5718
2023-05-19T08:57:22.927Z,69.3048
2023-05-19T08:58:23.765Z,69.9644
2023-05-19T08:59:24.600Z,69.9827
2023-05-19T09:00:25.689Z,69.5230
2023-05-19T09:01:25.938Z,69.6979
2023-05-19T09:02:27.057Z,69.9386
2023-05-19T09:03:28.691Z,67.9987
2023-05-19T09:04:29.994Z,69.5912
2023-05-19T09:05:29.465Z,70.5181
2023-05-19T09:06:30.187Z,71.2614
2023-05-19T09:07:31.459Z,70.2845
2023-05-19T09:08:32.582Z,71.5095
2023-05-19T09:09:32.753Z,72.5222
2023-05-19T09:10:33.476Z,71.5468
2023-05-19T09:11:33.616Z,69.9918
2023-05-19T09:12:34.824Z,71.4341
2023-05-19T09:13:36.007Z,71.0533
2023-05-19T09:14:37.208Z,71.8075
2023-05-19T09:32:51.180Z,72.5561
2023-05-19T09:33:51.426Z,72.6495
2023-05-19T09:34:52.551Z,73.2350
2023-05-19T09:35:52.684Z,73.2057
2023-05-19T09:36:53.861Z,73.3436
2023-05-19T09:37:54.132Z,73.0652
2023-05-19T09:38:55.160Z,71.4350
2023-05-19T09:39:56.112Z,70.0853
2023-05-19T09:40:57.048Z,70.8786
2023-05-19T09:41:58.065Z,70.1336
2023-05-19T09:42:59.133Z,70.5821
2023-05-19T09:44:00.189Z,70.1438
2023-05-19T09:45:01.270Z,69.5712
2023-05-19T09:46:02.288Z,70.1040
2023-05-19T09:47:03.246Z,69.4104
2023-05-19T09:48:04.171Z,69.8214
2023-05-19T09:49:04.186Z,69.9213
2023-05-19T09:50:05.089Z,69.7287
2023-05-19T09:51:06.206Z,69.0617
2023-05-19T09:52:07.214Z,68.6037
2023-05-19T09:53:08.191Z,67.7951
2023-05-19T09:54:08.298Z,68.0872
2023-05-19T09:55:09.342Z,69.9150
2023-05-19T09:56:09.365Z,68.6551
2023-05-19T09:57:10.384Z,69.0518
2023-05-19T10:20:28.893Z,67.4525
2023-05-19T10:21:30.063Z,68.0110
2023-05-19T10:22:31.270Z,68.7086
2023-05-19T10:23:32.049Z,67.6812
2023-05-19T10:24:33.162Z,68.6325
2023-05-19T10:25:34.425Z,68.6056
2023-05-19T10:26:34.331Z,68.6105
2023-05-19T10:27:35.271Z,68.7302
2023-05-19T10:28:36.190Z,68.5469
2023-05-19T10:29:37.098Z,67.7095
2023-05-19T10:30:38.150Z,66.1370
2023-05-19T10:31:39.319Z,68.0518
2023-05-19T10:32:39.397Z,67.8573
2023-05-19T10:33:40.432Z,68.0863
2023-05-19T10:34:41.277Z,67.3876
2023-05-19T10:35:42.199Z,66.6083
2023-05-19T10:36:42.266Z,67.3795
2023-05-19T10:37:43.449Z,65.9851
2023-05-19T10:38:44.527Z,68.0768
2023-05-19T10:39:45.094Z,68.3695
2023-05-19T10:40:46.093Z,68.0725
2023-05-19T10:41:47.063Z,68.1657
2023-05-19T10:42:46.928Z,68.0263
2023-05-19T10:43:48.182Z,68.3345
2023-05-19T10:44:48.733Z,67.9913
2023-05-19T10:45:48.944Z,68.0556
2023-05-19T10:46:49.474Z,68.5033
2023-05-19T11:03:04.226Z,63.7181
2023-05-19T11:04:05.989Z,65.2573
2023-05-19T11:05:06.457Z,65.3669
2023-05-19T11:06:07.481Z,64.2917
2023-05-19T11:07:08.644Z,67.5668
2023-05-19T11:08:09.668Z,66.5591
2023-05-19T11:09:10.695Z,68.1638
2023-05-19T11:10:10.895Z,68.8330
2023-05-19T11:11:11.829Z,66.2798
2023-05-19T11:12:12.754Z,67.0968
2023-05-19T11:13:14.909Z,66.9923
2023-05-19T11:14:14.737Z,67.2556
2023-05-19T11:15:15.718Z,67.4002
2023-05-19T11:16:16.889Z,66.0018
2023-05-19T11:17:18.078Z,65.2524
2023-05-19T11:18:18.785Z,65.7124
2023-05-19T11:19:20.002Z,66.5472
2023-05-19T11:20:20.109Z,65.2735
2023-05-19T11:21:21.227Z,64.0340
2023-05-19T11:22:22.152Z,63.4234
2023-05-19T11:23:23.442Z,64.4946
2023-05-19T11:24:23.448Z,64.0257
2023-05-19T11:25:24.435Z,64.9464
2023-05-19T11:26:25.271Z,65.2487
2023-05-19T11:27:26.153Z,66.1083
2023-05-19T11:28:26.992Z,66.3376
2023-05-19T11:29:27.858Z,68.3407
2023-05-19T11:30:28.849Z,67.7637
2023-05-19T11:31:29.777Z,68.0513
2023-05-19T11:32:30.955Z,67.6397
2023-05-19T11:33:30.813Z,67.2937
2023-05-19T11:34:31.673Z,66.9336
2023-05-19T11:35:35.444Z,66.0974
2023-05-19T11:36:32.809Z,65.3956
2023-05-19T11:37:33.576Z,64.1476
2023-05-19T11:38:34.388Z,63.9195
2023-05-19T11:39:35.401Z,63.4284
2023-05-19T11:40:36.222Z,63.7256
2023-05-19T11:41:37.267Z,62.3108
2023-05-19T11:42:38.268Z,60.5826
2023-05-19T11:43:39.275Z,59.3760
2023-05-19T11:44:40.482Z,57.9727
2023-05-19T11:45:41.188Z,60.0445
2023-05-19T11:46:42.352Z,62.6270
2023-05-19T11:48:00.895Z,60.4389
2023-05-19T11:48:44.021Z,62.3367
2023-05-19T11:49:44.862Z,61.6446
2023-05-19T11:50:45.896Z,61.5714
2023-05-19T11:51:47.015Z,61.8985
2023-05-19T11:52:48.180Z,61.9978
2023-05-19T11:53:48.381Z,60.6888
2023-05-19T11:54:49.442Z,59.7793
2023-05-19T11:55:50.932Z,59.0451
2023-05-19T11:56:50.775Z,59.7839
2023-05-19T11:58:02.903Z,58.1950
2023-05-19T11:58:52.374Z,59.3858
2023-05-19T11:59:53.392Z,59.1666
2023-05-19T12:00:54.448Z,58.4074
2023-05-19T12:01:54.612Z,58.2592
2023-05-19T12:02:54.707Z,58.3118
2023-05-19T12:03:54.796Z,59.1179
2023-05-19T12:04:55.831Z,58.0875
2023-05-19T12:05:56.618Z,55.9194
2023-05-19T12:06:56.459Z,57.1583
2023-05-19T12:07:57.674Z,58.3991
2023-05-19T12:08:58.609Z,57.6700
2023-05-19T12:09:59.670Z,57.2193
2023-05-19T12:11:00.531Z,60.3772
2023-05-19T12:12:01.493Z,61.1624
2023-05-19T12:13:02.441Z,60.6227
2023-05-19T12:14:03.411Z,59.0812
2023-05-19T12:15:04.334Z,59.2844
2023-05-19T12:16:05.402Z,60.9590
2023-05-19T12:17:06.533Z,59.7099
2023-05-19T12:18:07.748Z,60.8494
2023-05-19T12:19:08.678Z,60.0173
2023-05-19T12:20:09.916Z,59.5214
2023-05-19T12:21:09.877Z,60.2208
2023-05-19T12:22:10.058Z,60.1040
2023-05-19T12:23:10.082Z,59.8497
2023-05-19T12:24:10.878Z,58.7091
2023-05-19T12:25:11.778Z,58.7610
2023-05-19T12:26:11.881Z,60.2000
2023-05-19T12:27:12.987Z,59.2118
2023-05-19T12:28:14.808Z,59.7696
2023-05-19T12:38:22.091Z,58.7505
2023-05-19T12:39:22.985Z,58.7015
2023-05-19T12:40:24.056Z,58.9180
2023-05-19T12:41:25.228Z,60.0330
2023-05-19T12:42:26.152Z,58.8268
2023-05-19T12:43:27.320Z,59.9048
2023-05-19T12:44:28.301Z,59.7158
2023-05-19T12:45:29.174Z,61.3648
2023-05-19T12:46:30.406Z,61.5846
2023-05-19T12:47:31.353Z,61.5190
2023-05-19T12:48:31.436Z,61.5041
2023-05-19T12:49:32.518Z,62.6820
2023-05-19T12:50:32.966Z,62.3385
2023-05-19T12:51:33.494Z,62.0953
2023-05-19T12:52:34.149Z,61.8525
2023-05-19T12:53:35.080Z,63.5213
2023-05-19T12:54:36.296Z,61.8462
2023-05-19T12:57:37.457Z,62.7574
2023-05-19T12:58:37.496Z,62.6703
2023-05-19T12:59:38.992Z,62.5743
2023-05-19T13:00:39.150Z,62.0871
2023-05-19T13:01:40.581Z,61.4120
2023-05-19T13:02:41.543Z,61.9146
2023-05-19T13:03:42.060Z,61.7781
2023-05-19T13:04:43.173Z,62.5574
2023-05-19T13:05:44.218Z,62.0271
2023-05-19T13:06:45.168Z,59.3597
2023-05-19T13:07:45.979Z,60.4646
2023-05-19T13:08:46.823Z,58.7063
2023-05-19T13:09:47.055Z,60.2513
2023-05-19T13:10:47.935Z,58.8608
2023-05-19T13:11:48.835Z,59.6432
2023-05-19T13:12:49.849Z,60.7826
2023-05-19T13:13:49.962Z,61.6465
2023-05-19T13:14:51.660Z,62.6828
2023-05-19T13:15:51.191Z,63.6170
2023-05-19T13:16:52.275Z,64.3880
2023-05-19T13:17:53.273Z,64.7432
2023-05-19T13:18:53.670Z,65.5188
2023-05-19T13:19:54.382Z,65.2930
2023-05-19T13:20:55.314Z,66.2812
2023-05-19T13:21:56.467Z,66.8413
2023-05-19T13:22:57.418Z,67.0747
2023-05-19T13:23:58.486Z,66.3977
2023-05-19T13:24:59.442Z,66.3294
2023-05-19T13:26:00.053Z,65.6240
2023-05-19T13:27:00.263Z,64.8733
2023-05-19T13:28:01.560Z,65.0916
2023-05-19T13:29:02.502Z,64.6324
2023-05-19T13:30:03.418Z,64.8508
2023-05-19T13:31:04.425Z,63.6115
2023-05-19T13:32:04.397Z,63.9750
2023-05-19T13:33:05.652Z,64.3918
2023-05-19T13:34:06.204Z,64.8216
2023-05-19T13:35:07.004Z,66.7960
2023-05-19T13:36:07.378Z,65.1565
2023-05-19T13:48:16.355Z,65.9685
2023-05-19T13:49:17.360Z,66.4982
2023-05-19T13:50:18.344Z,65.0647
2023-05-19T13:51:19.302Z,65.1763
2023-05-19T13:52:20.380Z,64.2909
2023-05-19T13:53:21.450Z,64.6716
2023-05-19T13:54:22.677Z,64.4589
2023-05-19T13:55:23.729Z,64.7870
2023-05-19T13:56:24.555Z,64.2331
2023-05-19T13:57:25.505Z,64.1968
2023-05-19T13:58:26.438Z,65.1400
2023-05-19T13:59:27.448Z,64.7614
2023-05-19T14:00:27.865Z,64.9038
2023-05-19T14:01:28.022Z,65.5771
2023-05-19T14:13:43.685Z,69.3399
2023-05-19T14:14:43.699Z,68.0650
2023-05-19T14:15:43.794Z,68.6893
2023-05-19T14:16:45.300Z,67.1750
2023-05-19T14:17:46.390Z,69.4035
2023-05-19T14:18:46.475Z,69.1338
2023-05-19T14:19:47.658Z,68.5999
2023-05-19T14:20:48.676Z,67.6023
2023-05-19T14:21:49.687Z,67.5978
2023-05-19T14:22:50.675Z,67.2458
2023-05-19T14:23:51.919Z,66.7392
2023-05-19T14:24:52.680Z,65.9664
2023-05-19T14:25:53.777Z,66.6460
2023-05-19T14:26:53.899Z,65.8868
2023-05-19T14:27:55.044Z,66.7532
2023-05-19T14:28:56.247Z,67.7885
2023-05-19T14:29:57.138Z,69.7637
2023-05-19T14:30:57.272Z,68.5167
2023-05-19T14:31:58.555Z,67.6975
2023-05-19T14:32:59.589Z,68.3403
2023-05-19T14:34:00.786Z,67.4693
2023-05-19T14:35:01.727Z,66.2384
2023-05-19T14:36:02.783Z,66.0988
2023-05-19T14:37:03.840Z,66.6963
2023-05-19T14:38:04.998Z,67.0041
2023-05-19T14:39:05.771Z,67.1466
2023-05-19T14:40:08.813Z,66.8789
2023-05-19T14:45:10.230Z,67.0156
2023-05-19T15:16:34.241Z,66.1628
2023-05-19T15:17:35.498Z,67.4047
2023-05-19T15:18:36.662Z,67.6934
2023-05-19T15:19:36.894Z,66.1907
2023-05-19T15:20:40.278Z,66.1375
2023-05-19T15:21:40.550Z,67.7428
2023-05-19T15:23:41.261Z,68.4876
2023-05-19T15:28:03.122Z,69.0849
2023-05-19T15:29:04.370Z,68.0599
2023-05-19T15:30:05.139Z,69.2008
2023-05-19T15:32:06.197Z,69.8368
2023-05-19T15:34:07.636Z,69.1700
2023-05-19T15:35:07.938Z,69.5178
2023-05-19T15:36:08.221Z,68.9093
2023-05-19T15:37:09.674Z,68.9484
2023-05-19T15:38:09.366Z,67.9651
2023-05-19T15:39:10.697Z,68.7584
2023-05-19T15:40:11.974Z,68.9759
2023-05-19T15:46:15.456Z,68.8723
2023-05-19T15:47:15.968Z,68.7252
2023-05-19T15:48:17.960Z,68.3381
2023-05-19T15:49:18.248Z,68.3936
2023-05-19T15:52:21.286Z,69.0217
2023-05-19T15:53:22.558Z,69.9724
2023-05-19T15:54:23.332Z,69.6727
2023-05-19T15:55:24.150Z,68.9298
2023-05-19T15:56:24.263Z,69.1945
2023-05-19T15:57:25.356Z,69.2984
2023-05-19T15:58:26.185Z,68.7542
2023-05-19T15:59:27.389Z,68.6834
2023-05-19T16:01:28.122Z,69.0171
2023-05-19T16:03:27.714Z,68.9859
2023-05-19T16:04:28.788Z,68.0985
2023-05-19T16:05:29.093Z,68.5071
2023-05-19T16:06:30.079Z,69.5219
2023-05-19T16:07:30.475Z,68.2433
2023-05-19T16:08:31.009Z,69.7647
2023-05-19T16:09:32.227Z,68.7746
2023-05-19T16:10:32.898Z,68.4044
2023-05-19T16:12:33.824Z,68.6017
2023-05-19T16:13:35.112Z,67.9705
2023-05-19T16:15:35.602Z,67.3416
2023-05-19T16:16:37.052Z,66.9072
2023-05-19T16:17:36.848Z,66.3290
2023-05-19T16:18:38.378Z,66.4152
2023-05-19T16:19:38.385Z,66.5321
2023-05-19T16:21:39.128Z,66.5229
2023-05-19T16:32:44.369Z,66.5010
2023-05-19T16:33:44.597Z,66.6397
2023-05-19T16:34:45.581Z,67.8231
2023-05-19T16:36:46.830Z,67.3065
2023-05-19T16:38:47.891Z,69.5296
2023-05-19T16:39:48.370Z,67.4237
2023-05-19T16:45:52.597Z,67.3501
2023-05-19T16:46:53.309Z,67.5294
2023-05-19T16:47:54.677Z,68.3214
2023-05-19T16:48:55.825Z,69.1852
2023-05-19T16:49:56.017Z,68.1598
2023-05-19T16:51:57.154Z,67.6903
2023-05-19T16:52:57.500Z,67.7688
2023-05-19T16:53:57.664Z,69.3819
2023-05-19T16:56:00.451Z,69.0274
2023-05-19T16:57:01.493Z,69.9960
2023-05-19T16:59:02.118Z,68.9093
2023-05-19T17:00:03.302Z,70.2001
2023-05-19T17:01:03.774Z,69.4080
2023-05-19T17:02:05.117Z,69.6103
2023-05-19T17:03:05.368Z,69.4617
2023-05-19T17:04:05.577Z,68.5553
2023-05-19T17:05:07.186Z,69.4203
2023-05-19T17:06:07.431Z,69.1422
2023-05-19T17:08:08.374Z,68.9965
2023-05-19T17:09:09.267Z,68.9995
2023-05-19T17:10:10.599Z,68.1811
2023-05-19T17:11:11.458Z,68.7567
2023-05-19T17:12:11.808Z,68.9372
2023-05-19T17:13:12.995Z,68.6248
2023-05-19T17:14:14.205Z,69.2396
2023-05-19T17:15:15.035Z,69.2557
2023-05-19T17:16:15.913Z,69.2971
2023-05-19T17:17:16.045Z,69.2551
2023-05-19T17:18:16.880Z,69.0957
2023-05-19T17:19:17.836Z,69.2036
2023-05-19T17:20:18.382Z,69.4098
2023-05-19T17:21:19.589Z,69.5955
2023-05-19T17:22:20.178Z,70.8306
2023-05-19T17:23:20.867Z,70.1535
2023-05-19T17:24:21.775Z,69.1248
2023-05-19T17:25:22.146Z,69.7495
2023-05-19T17:26:23.153Z,69.6921
2023-05-19T17:27:24.039Z,69.6853
2023-05-19T17:32:26.185Z,69.6548
2023-05-19T17:34:27.470Z,70.2734
2023-05-19T17:35:28.657Z,72.3098
2023-05-19T17:36:29.042Z,73.2207
2023-05-19T17:37:30.524Z,70.7251
2023-05-19T17:40:32.008Z,69.8183
2023-05-19T17:42:32.547Z,70.6188
2023-05-19T17:43:32.809Z,70.7665
2023-05-19T17:45:36.439Z,71.5461
2023-05-19T17:54:41.864Z,71.5807
2023-05-19T17:55:42.398Z,71.1638
2023-05-19T17:56:43.939Z,70.5173
2023-05-19T17:57:45.662Z,71.2146
2023-05-19T17:58:45.975Z,71.4395
2023-05-19T17:59:46.099Z,72.2775
2023-05-19T18:00:47.752Z,71.4552
2023-05-19T18:01:47.913Z,72.3641
2023-05-19T18:02:48.404Z,70.3332
2023-05-19T18:03:50.013Z,71.0372
2023-05-19T18:08:52.853Z,70.0377
2023-05-19T18:09:53.215Z,69.6808
2023-05-19T18:11:56.193Z,70.4015
2023-05-19T18:12:57.428Z,71.3981
2023-05-19T18:14:59.101Z,70.9899
2023-05-19T18:16:00.268Z,69.9584
2023-05-19T18:17:00.519Z,70.2998
2023-05-19T18:18:01.099Z,69.9169
2023-05-19T18:19:01.952Z,69.3749
2023-05-19T18:30:09.731Z,70.7499
2023-05-19T18:31:10.669Z,71.9852
2023-05-19T18:32:11.097Z,71.6247
2023-05-19T18:33:12.109Z,71.7196
2023-05-19T18:34:11.496Z,71.0968
2023-05-19T18:35:12.644Z,71.4963
2023-05-19T18:36:13.963Z,71.0598
2023-05-19T18:37:14.920Z,70.4929
2023-05-19T18:38:15.103Z,71.9815
2023-05-19T18:39:16.115Z,71.8034
2023-05-19T18:40:16.550Z,71.9533
2023-05-19T18:41:16.820Z,71.1198
2023-05-19T18:43:20.345Z,71.3589
2023-05-19T18:44:21.438Z,71.1079
2023-05-19T18:53:28.614Z,72.8617
2023-05-19T18:54:29.595Z,72.2822
2023-05-19T18:56:30.283Z,72.7239
2023-05-19T18:57:30.793Z,72.5612
2023-05-19T18:59:33.852Z,72.5243
2023-05-19T19:00:35.269Z,72.2322
2023-05-19T19:01:35.292Z,73.1768
2023-05-19T19:02:36.335Z,73.9985
2023-05-19T19:03:37.781Z,74.5971
2023-05-19T19:04:38.247Z,72.2306
2023-05-19T19:05:39.609Z,72.8480
2023-05-19T19:06:42.014Z,72.7208
2023-05-19T19:15:47.580Z,73.9624
2023-05-19T19:16:48.699Z,74.3987
2023-05-19T19:17:49.625Z,73.1000
2023-05-19T19:18:50.687Z,74.6992
2023-05-19T19:19:51.281Z,73.2135
2023-05-19T19:20:51.487Z,73.6968
2023-05-19T19:21:52.365Z,73.1371
2023-05-19T19:22:52.750Z,73.3009
2023-05-19T19:23:53.946Z,73.4958
2023-05-19T19:24:55.121Z,73.5499
2023-05-19T19:25:55.653Z,73.0058
2023-05-19T19:26:57.080Z,73.5015
2023-05-19T19:27:57.322Z,72.8802
2023-05-19T19:28:57.414Z,73.9964
2023-05-19T19:29:58.302Z,73.9516
2023-05-19T19:36:03.797Z,73.8717
2023-05-19T19:37:05.272Z,73.8899
2023-05-19T19:39:06.154Z,73.8122
2023-05-19T19:40:06.243Z,74.9721
2023-05-19T19:41:07.240Z,73.6423
2023-05-19T19:42:08.415Z,73.4663
2023-05-19T19:43:09.064Z,73.7280
2023-05-19T19:44:10.290Z,73.7846
2023-05-19T19:45:12.496Z,74.2407
2023-05-19T19:46:12.271Z,74.1889
2023-05-19T19:47:12.783Z,75.1994
2023-05-19T19:48:13.091Z,75.2268
2023-05-19T19:49:13.959Z,74.4871
2023-05-19T19:50:15.061Z,75.5682
2023-05-19T19:51:16.294Z,77.2002
2023-05-19T19:52:17.636Z,77.0416
2023-05-19T19:58:21.215Z,75.0594
2023-05-19T19:59:21.571Z,74.7572
2023-05-19T20:00:22.403Z,73.9021
2023-05-19T20:01:22.869Z,75.1545